sensor_id;sensor_type;location;lat;lon;timestamp;pressure;altitude;pressure_sealevel;temperature;humidity
63343;BME280;49465;57.664;39.686;2023-08-01T00:00:35;99776.25;;;18.95;52.68
63343;BME280;49465;57.664;39.686;2023-08-01T00:03:10;99770.94;;;19.04;52.34
63343;BME280;49465;57.664;39.686;2023-08-01T00:05:51;99777.22;;;18.86;52.32
63343;BME280;49465;57.664;39.686;2023-08-01T00:08:24;99778.16;;;18.69;52.35
63343;BME280;49465;57.664;39.686;2023-08-01T00:11:07;99775.56;;;18.85;52.11
63343;BME280;49465;57.664;39.686;2023-08-01T00:13:41;99779.66;;;18.71;52.84
63343;BME280;49465;57.664;39.686;2023-08-01T00:16:12;99771.84;;;18.53;52.71
63343;BME280;49465;57.664;39.686;2023-08-01T00:18:44;99778.31;;;18.59;53.20
63343;BME280;49465;57.664;39.686;2023-08-01T00:21:19;99775.44;;;18.44;53.45
63343;BME280;49465;57.664;39.686;2023-08-01T00:23:50;99783.47;;;18.52;53.49
63343;BME280;49465;57.664;39.686;2023-08-01T00:26:23;99775.44;;;18.36;53.14
63343;BME280;49465;57.664;39.686;2023-08-01T00:29:00;99780.75;;;18.44;53.66
63343;BME280;49465;57.664;39.686;2023-08-01T00:31:32;99781.09;;;18.41;53.83
63343;BME280;49465;57.664;39.686;2023-08-01T00:34:01;99776.88;;;18.22;53.56
63343;BME280;49465;57.664;39.686;2023-08-01T00:36:35;99778.03;;;18.20;53.58
63343;BME280;49465;57.664;39.686;2023-08-01T00:39:05;99790.94;;;18.14;53.86
63343;BME280;49465;57.664;39.686;2023-08-01T00:41:43;99792.69;;;18.32;54.18
63343;BME280;49465;57.664;39.686;2023-08-01T00:44:15;99785.34;;;18.17;53.94
63343;BME280;49465;57.664;39.686;2023-08-01T00:46:47;99790.94;;;18.14;54.23
63343;BME280;49465;57.664;39.686;2023-08-01T00:49:18;99786.97;;;18.10;54.10
63343;BME280;49465;57.664;39.686;2023-08-01T00:51:56;99791.78;;;18.15;53.62
63343;BME280;49465;57.664;39.686;2023-08-01T00:54:27;99792.22;;;18.02;53.80
63343;BME280;49465;57.664;39.686;2023-08-01T00:56:59;99787.00;;;17.84;53.79
63343;BME280;49465;57.664;39.686;2023-08-01T00:59:31;99782.13;;;17.79;53.58
63343;BME280;49465;57.664;39.686;2023-08-01T01:02:08;99786.53;;;17.89;53.68
63343;BME280;49465;57.664;39.686;2023-08-01T01:04:40;99786.41;;;17.72;53.43
63343;BME280;49465;57.664;39.686;2023-08-01T01:07:17;99793.50;;;17.90;53.60
63343;BME280;49465;57.664;39.686;2023-08-01T01:09:53;99793.31;;;17.65;54.00
63343;BME280;49465;57.664;39.686;2023-08-01T01:12:25;99799.19;;;17.77;54.02
63343;BME280;49465;57.664;39.686;2023-08-01T01:14:57;99793.75;;;17.78;53.83
63343;BME280;49465;57.664;39.686;2023-08-01T01:17:32;99797.09;;;17.54;54.23
63343;BME280;49465;57.664;39.686;2023-08-01T01:20:04;99800.59;;;17.63;54.45
63343;BME280;49465;57.664;39.686;2023-08-01T01:22:33;99802.72;;;17.59;54.39
63343;BME280;49465;57.664;39.686;2023-08-01T01:25:05;99805.88;;;17.55;54.90
63343;BME280;49465;57.664;39.686;2023-08-01T01:27:34;99815.06;;;17.43;54.59
63343;BME280;49465;57.664;39.686;2023-08-01T01:30:07;99811.69;;;17.58;54.09
63343;BME280;49465;57.664;39.686;2023-08-01T01:32:43;99809.13;;;17.49;55.03
63343;BME280;49465;57.664;39.686;2023-08-01T01:35:18;99803.88;;;17.57;54.58
63343;BME280;49465;57.664;39.686;2023-08-01T01:37:47;99800.53;;;17.29;54.78
63343;BME280;49465;57.664;39.686;2023-08-01T01:40:21;99808.47;;;17.47;54.95
63343;BME280;49465;57.664;39.686;2023-08-01T01:42:53;99805.13;;;17.45;54.76
63343;BME280;49465;57.664;39.686;2023-08-01T01:45:25;99813.31;;;17.33;55.15
63343;BME280;49465;57.664;39.686;2023-08-01T01:47:55;99816.81;;;17.16;55.42
63343;BME280;49465;57.664;39.686;2023-08-01T01:50:27;99818.38;;;17.27;55.91
63343;BME280;49465;57.664;39.686;2023-08-01T01:52:59;99820.22;;;17.26;55.65
63343;BME280;49465;57.664;39.686;2023-08-01T01:55:29;99823.69;;;17.27;55.47
63343;BME280;49465;57.664;39.686;2023-08-01T01:58:00;99831.81;;;17.25;55.25
63343;BME280;49465;57.664;39.686;2023-08-01T02:00:30;99838.75;;;17.26;56.05
63343;BME280;49465;57.664;39.686;2023-08-01T02:02:59;99822.75;;;17.10;55.86
63343;BME280;49465;57.664;39.686;2023-08-01T02:05:31;99830.84;;;17.08;55.85
63343;BME280;49465;57.664;39.686;2023-08-01T02:08:02;99830.47;;;17.21;56.28
63343;BME280;49465;57.664;39.686;2023-08-01T02:10:36;99831.63;;;17.27;56.11
63343;BME280;49465;57.664;39.686;2023-08-01T02:13:02;99830.38;;;17.13;56.24
63343;BME280;49465;57.664;39.686;2023-08-01T02:15:34;99838.09;;;17.24;56.87
63343;BME280;49465;57.664;39.686;2023-08-01T02:18:06;99836.13;;;17.26;56.91
63343;BME280;49465;57.664;39.686;2023-08-01T02:20:38;99836.34;;;17.15;56.75
63343;BME280;49465;57.664;39.686;2023-08-01T02:23:06;99846.84;;;17.25;57.49
63343;BME280;49465;57.664;39.686;2023-08-01T02:25:42;99850.41;;;17.33;57.45
63343;BME280;49465;57.664;39.686;2023-08-01T02:28:13;99852.25;;;17.33;57.60
63343;BME280;49465;57.664;39.686;2023-08-01T02:30:41;99840.72;;;17.24;57.47
63343;BME280;49465;57.664;39.686;2023-08-01T02:33:14;99845.34;;;17.22;57.82
63343;BME280;49465;57.664;39.686;2023-08-01T02:35:43;99848.81;;;17.23;58.59
63343;BME280;49465;57.664;39.686;2023-08-01T02:38:17;99848.13;;;17.38;58.81
63343;BME280;49465;57.664;39.686;2023-08-01T02:40:48;99853.13;;;17.42;58.37
63343;BME280;49465;57.664;39.686;2023-08-01T02:43:20;99853.66;;;17.45;58.76
63343;BME280;49465;57.664;39.686;2023-08-01T02:45:54;99854.94;;;17.59;58.06
63343;BME280;49465;57.664;39.686;2023-08-01T02:48:26;99859.06;;;17.62;58.69
63343;BME280;49465;57.664;39.686;2023-08-01T02:50:58;99852.56;;;17.56;59.08
63343;BME280;49465;57.664;39.686;2023-08-01T02:53:32;99854.78;;;17.61;58.88
63343;BME280;49465;57.664;39.686;2023-08-01T02:56:01;99857.09;;;17.64;59.31
63343;BME280;49465;57.664;39.686;2023-08-01T02:58:30;99858.03;;;17.54;59.40
63343;BME280;49465;57.664;39.686;2023-08-01T03:01:08;99855.22;;;17.56;59.78
63343;BME280;49465;57.664;39.686;2023-08-01T03:03:42;99857.84;;;17.74;60.31
63343;BME280;49465;57.664;39.686;2023-08-01T03:06:11;99867.56;;;17.65;59.65
63343;BME280;49465;57.664;39.686;2023-08-01T03:08:43;99869.63;;;17.79;60.94
63343;BME280;49465;57.664;39.686;2023-08-01T03:11:21;99861.31;;;17.92;59.82
63343;BME280;49465;57.664;39.686;2023-08-01T03:13:59;99865.03;;;18.08;61.33
63343;BME280;49465;57.664;39.686;2023-08-01T03:16:30;99861.00;;;17.95;61.59
63343;BME280;49465;57.664;39.686;2023-08-01T03:18:59;99860.78;;;17.89;61.20
63343;BME280;49465;57.664;39.686;2023-08-01T03:21:36;99858.59;;;18.95;55.04
63343;BME280;49465;57.664;39.686;2023-08-01T03:24:16;99860.31;;;18.28;60.41
63343;BME280;49465;57.664;39.686;2023-08-01T03:26:50;99861.03;;;18.38;60.54
63343;BME280;49465;57.664;39.686;2023-08-01T03:29:19;99853.16;;;18.20;60.70
63343;BME280;49465;57.664;39.686;2023-08-01T03:31:56;99864.56;;;18.47;61.87
63343;BME280;49465;57.664;39.686;2023-08-01T03:34:22;99865.66;;;18.36;61.29
63343;BME280;49465;57.664;39.686;2023-08-01T03:37:02;99876.72;;;18.66;61.03
63343;BME280;49465;57.664;39.686;2023-08-01T03:39:32;99866.78;;;18.68;62.36
63343;BME280;49465;57.664;39.686;2023-08-01T03:42:02;99869.75;;;18.65;61.55
63343;BME280;49465;57.664;39.686;2023-08-01T03:44:38;99875.34;;;18.96;61.92
63343;BME280;49465;57.664;39.686;2023-08-01T03:47:07;99869.38;;;19.02;61.17
63343;BME280;49465;57.664;39.686;2023-08-01T03:49:36;99873.53;;;19.13;61.23
63343;BME280;49465;57.664;39.686;2023-08-01T03:52:07;99870.56;;;19.24;61.14
63343;BME280;49465;57.664;39.686;2023-08-01T03:54:36;99874.22;;;19.31;60.72
63343;BME280;49465;57.664;39.686;2023-08-01T03:57:10;99872.88;;;19.52;61.15
63343;BME280;49465;57.664;39.686;2023-08-01T03:59:44;99874.06;;;19.58;60.00
63343;BME280;49465;57.664;39.686;2023-08-01T04:02:13;99873.72;;;19.61;59.81
63343;BME280;49465;57.664;39.686;2023-08-01T04:04:39;99873.22;;;19.73;59.57
63343;BME280;49465;57.664;39.686;2023-08-01T04:07:05;99878.88;;;19.87;58.77
63343;BME280;49465;57.664;39.686;2023-08-01T04:09:35;99880.31;;;20.14;58.88
63343;BME280;49465;57.664;39.686;2023-08-01T04:12:07;99883.75;;;20.31;59.02
63343;BME280;49465;57.664;39.686;2023-08-01T04:14:42;99881.34;;;20.52;58.50
63343;BME280;49465;57.664;39.686;2023-08-01T04:17:14;99873.22;;;20.46;58.97
63343;BME280;49465;57.664;39.686;2023-08-01T04:19:45;99888.47;;;20.68;58.59
63343;BME280;49465;57.664;39.686;2023-08-01T04:22:19;99889.56;;;20.82;58.36
63343;BME280;49465;57.664;39.686;2023-08-01T04:24:48;99884.72;;;20.86;58.45
63343;BME280;49465;57.664;39.686;2023-08-01T04:27:17;99887.44;;;21.01;58.15
63343;BME280;49465;57.664;39.686;2023-08-01T04:29:51;99891.97;;;21.23;57.96
63343;BME280;49465;57.664;39.686;2023-08-01T04:32:22;99887.53;;;21.39;56.79
63343;BME280;49465;57.664;39.686;2023-08-01T04:34:57;99886.97;;;21.66;56.99
63343;BME280;49465;57.664;39.686;2023-08-01T04:37:26;99881.81;;;21.65;56.60
63343;BME280;49465;57.664;39.686;2023-08-01T04:40:02;99889.31;;;21.99;56.69
63343;BME280;49465;57.664;39.686;2023-08-01T04:42:34;99881.69;;;21.96;56.54
63343;BME280;49465;57.664;39.686;2023-08-01T04:45:04;99878.34;;;22.09;55.68
63343;BME280;49465;57.664;39.686;2023-08-01T04:47:32;99874.75;;;22.25;55.94
63343;BME280;49465;57.664;39.686;2023-08-01T04:50:03;99886.66;;;22.44;55.43
63343;BME280;49465;57.664;39.686;2023-08-01T04:52:32;99889.69;;;22.70;55.70
63343;BME280;49465;57.664;39.686;2023-08-01T04:54:59;99886.06;;;22.78;55.59
63343;BME280;49465;57.664;39.686;2023-08-01T04:57:40;99886.75;;;23.02;55.32
63343;BME280;49465;57.664;39.686;2023-08-01T05:00:07;99886.84;;;23.08;55.08
63343;BME280;49465;57.664;39.686;2023-08-01T05:02:38;99890.34;;;23.30;54.92
63343;BME280;49465;57.664;39.686;2023-08-01T05:05:11;99893.00;;;23.52;54.37
63343;BME280;49465;57.664;39.686;2023-08-01T05:07:43;99896.22;;;23.69;54.07
63343;BME280;49465;57.664;39.686;2023-08-01T05:10:12;99900.75;;;23.90;54.18
63343;BME280;49465;57.664;39.686;2023-08-01T05:12:43;99896.50;;;24.02;53.61
63343;BME280;49465;57.664;39.686;2023-08-01T05:15:10;99893.56;;;24.25;54.02
63343;BME280;49465;57.664;39.686;2023-08-01T05:17:38;99890.00;;;24.53;54.22
63343;BME280;49465;57.664;39.686;2023-08-01T05:20:15;99890.13;;;24.80;53.84
63343;BME280;49465;57.664;39.686;2023-08-01T05:22:45;99887.28;;;25.08;52.49
63343;BME280;49465;57.664;39.686;2023-08-01T05:25:11;99896.88;;;25.31;52.43
63343;BME280;49465;57.664;39.686;2023-08-01T05:27:43;99897.47;;;25.59;51.93
63343;BME280;49465;57.664;39.686;2023-08-01T05:30:14;99897.88;;;25.70;52.14
63343;BME280;49465;57.664;39.686;2023-08-01T05:32:43;99903.91;;;25.92;51.86
63343;BME280;49465;57.664;39.686;2023-08-01T05:35:16;99901.16;;;26.25;50.79
63343;BME280;49465;57.664;39.686;2023-08-01T05:37:55;99895.09;;;26.36;50.48
63343;BME280;49465;57.664;39.686;2023-08-01T05:40:22;99899.22;;;26.59;50.06
63343;BME280;49465;57.664;39.686;2023-08-01T05:42:57;99900.97;;;26.78;50.22
63343;BME280;49465;57.664;39.686;2023-08-01T05:45:26;99902.53;;;26.99;49.48
63343;BME280;49465;57.664;39.686;2023-08-01T05:47:57;99900.53;;;27.20;49.11
63343;BME280;49465;57.664;39.686;2023-08-01T05:50:29;99901.81;;;27.49;48.65
63343;BME280;49465;57.664;39.686;2023-08-01T05:53:01;99899.59;;;27.65;47.47
63343;BME280;49465;57.664;39.686;2023-08-01T05:55:28;99904.19;;;27.64;47.89
63343;BME280;49465;57.664;39.686;2023-08-01T05:57:57;99902.41;;;27.76;49.17
63343;BME280;49465;57.664;39.686;2023-08-01T06:00:24;99908.69;;;27.95;48.77
63343;BME280;49465;57.664;39.686;2023-08-01T06:02:50;99903.31;;;28.14;48.01
63343;BME280;49465;57.664;39.686;2023-08-01T06:05:19;99908.78;;;28.44;47.59
63343;BME280;49465;57.664;39.686;2023-08-01T06:07:46;99911.81;;;28.54;47.76
63343;BME280;49465;57.664;39.686;2023-08-01T06:10:18;99913.03;;;28.89;46.56
63343;BME280;49465;57.664;39.686;2023-08-01T06:12:44;99911.22;;;29.01;47.49
63343;BME280;49465;57.664;39.686;2023-08-01T06:15:10;99912.34;;;29.24;46.82
63343;BME280;49465;57.664;39.686;2023-08-01T06:17:40;99916.66;;;29.55;45.07
63343;BME280;49465;57.664;39.686;2023-08-01T06:20:06;99905.72;;;29.62;44.75
63343;BME280;49465;57.664;39.686;2023-08-01T06:22:39;99910.72;;;29.88;45.13
63343;BME280;49465;57.664;39.686;2023-08-01T06:25:05;99916.56;;;29.97;44.24
63343;BME280;49465;57.664;39.686;2023-08-01T06:27:32;99920.47;;;30.13;44.81
63343;BME280;49465;57.664;39.686;2023-08-01T06:30:00;99919.53;;;30.31;44.14
63343;BME280;49465;57.664;39.686;2023-08-01T06:32:27;99911.63;;;30.41;43.12
63343;BME280;49465;57.664;39.686;2023-08-01T06:34:58;99915.09;;;30.53;44.80
63343;BME280;49465;57.664;39.686;2023-08-01T06:37:30;99923.66;;;30.74;42.66
63343;BME280;49465;57.664;39.686;2023-08-01T06:40:01;99916.50;;;30.97;43.71
63343;BME280;49465;57.664;39.686;2023-08-01T06:42:33;99915.25;;;31.16;43.87
63343;BME280;49465;57.664;39.686;2023-08-01T06:44:59;99909.44;;;31.24;43.32
63343;BME280;49465;57.664;39.686;2023-08-01T06:47:26;99914.88;;;31.41;40.83
63343;BME280;49465;57.664;39.686;2023-08-01T06:49:52;99920.56;;;31.57;40.74
63343;BME280;49465;57.664;39.686;2023-08-01T06:52:18;99915.63;;;31.70;41.74
63343;BME280;49465;57.664;39.686;2023-08-01T06:54:45;99917.78;;;31.85;41.17
63343;BME280;49465;57.664;39.686;2023-08-01T06:57:11;99923.34;;;31.96;41.30
63343;BME280;49465;57.664;39.686;2023-08-01T06:59:40;99923.31;;;32.12;41.52
63343;BME280;49465;57.664;39.686;2023-08-01T07:02:09;99923.78;;;32.26;40.43
63343;BME280;49465;57.664;39.686;2023-08-01T07:04:35;99922.34;;;32.41;39.12
63343;BME280;49465;57.664;39.686;2023-08-01T07:07:04;99918.53;;;32.59;40.50
63343;BME280;49465;57.664;39.686;2023-08-01T07:09:33;99924.38;;;32.73;39.71
63343;BME280;49465;57.664;39.686;2023-08-01T07:11:59;99922.41;;;32.90;39.67
63343;BME280;49465;57.664;39.686;2023-08-01T07:14:26;99924.53;;;33.10;39.94
63343;BME280;49465;57.664;39.686;2023-08-01T07:16:54;99921.72;;;33.27;39.01
63343;BME280;49465;57.664;39.686;2023-08-01T07:19:21;99920.44;;;33.40;38.51
63343;BME280;49465;57.664;39.686;2023-08-01T07:21:47;99928.66;;;33.45;38.45
63343;BME280;49465;57.664;39.686;2023-08-01T07:24:14;99922.25;;;33.61;37.86
63343;BME280;49465;57.664;39.686;2023-08-01T07:26:46;99928.63;;;33.77;38.79
63343;BME280;49465;57.664;39.686;2023-08-01T07:29:13;99922.19;;;33.88;38.54
63343;BME280;49465;57.664;39.686;2023-08-01T07:31:42;99925.53;;;34.01;36.88
63343;BME280;49465;57.664;39.686;2023-08-01T07:34:09;99927.84;;;34.19;38.25
63343;BME280;49465;57.664;39.686;2023-08-01T07:36:35;99923.00;;;34.32;36.71
63343;BME280;49465;57.664;39.686;2023-08-01T07:39:02;99922.81;;;34.49;37.71
63343;BME280;49465;57.664;39.686;2023-08-01T07:41:30;99926.41;;;34.64;36.58
63343;BME280;49465;57.664;39.686;2023-08-01T07:44:00;99923.22;;;34.78;37.50
63343;BME280;49465;57.664;39.686;2023-08-01T07:46:26;99916.16;;;34.92;36.89
63343;BME280;49465;57.664;39.686;2023-08-01T07:48:53;99919.75;;;35.03;36.70
63343;BME280;49465;57.664;39.686;2023-08-01T07:51:20;99920.81;;;35.12;34.95
63343;BME280;49465;57.664;39.686;2023-08-01T07:53:46;99917.59;;;35.20;35.07
63343;BME280;49465;57.664;39.686;2023-08-01T07:56:15;99917.31;;;35.32;35.52
63343;BME280;49465;57.664;39.686;2023-08-01T07:58:41;99914.34;;;35.39;34.61
63343;BME280;49465;57.664;39.686;2023-08-01T08:01:08;99919.25;;;35.47;35.34
63343;BME280;49465;57.664;39.686;2023-08-01T08:03:34;99925.50;;;35.48;34.35
63343;BME280;49465;57.664;39.686;2023-08-01T08:06:00;99925.78;;;35.56;34.34
63343;BME280;49465;57.664;39.686;2023-08-01T08:08:30;99920.59;;;35.65;33.87
63343;BME280;49465;57.664;39.686;2023-08-01T08:10:59;99920.59;;;35.75;33.86
63343;BME280;49465;57.664;39.686;2023-08-01T08:13:29;99918.97;;;35.69;32.50
63343;BME280;49465;57.664;39.686;2023-08-01T08:15:56;99926.03;;;35.75;33.59
63343;BME280;49465;57.664;39.686;2023-08-01T08:18:23;99922.25;;;35.76;31.95
63343;BME280;49465;57.664;39.686;2023-08-01T08:20:55;99929.59;;;35.81;33.41
63343;BME280;49465;57.664;39.686;2023-08-01T08:23:21;99923.84;;;35.93;33.52
63343;BME280;49465;57.664;39.686;2023-08-01T08:25:47;99926.00;;;36.06;35.03
63343;BME280;49465;57.664;39.686;2023-08-01T08:28:17;99923.25;;;36.21;34.65
63343;BME280;49465;57.664;39.686;2023-08-01T08:30:43;99918.88;;;36.31;33.61
63343;BME280;49465;57.664;39.686;2023-08-01T08:33:21;99924.69;;;36.63;34.53
63343;BME280;49465;57.664;39.686;2023-08-01T08:35:50;99917.34;;;36.59;34.44
63343;BME280;49465;57.664;39.686;2023-08-01T08:38:19;99916.78;;;36.72;32.95
63343;BME280;49465;57.664;39.686;2023-08-01T08:41:09;99929.31;;;37.23;34.33
63343;BME280;49465;57.664;39.686;2023-08-01T08:43:36;99918.53;;;36.97;32.98
63343;BME280;49465;57.664;39.686;2023-08-01T08:46:09;99925.00;;;37.17;32.38
63343;BME280;49465;57.664;39.686;2023-08-01T08:48:46;99928.50;;;37.23;32.94
63343;BME280;49465;57.664;39.686;2023-08-01T08:51:13;99923.56;;;37.25;32.56
63343;BME280;49465;57.664;39.686;2023-08-01T08:53:51;99923.94;;;37.42;33.19
63343;BME280;49465;57.664;39.686;2023-08-01T08:56:21;99914.66;;;37.43;31.32
63343;BME280;49465;57.664;39.686;2023-08-01T08:58:52;99917.06;;;37.50;28.13
63343;BME280;49465;57.664;39.686;2023-08-01T09:01:22;99922.97;;;37.33;31.37
63343;BME280;49465;57.664;39.686;2023-08-01T09:03:53;99920.69;;;37.40;31.41
63343;BME280;49465;57.664;39.686;2023-08-01T09:06:25;99918.69;;;37.51;31.48
63343;BME280;49465;57.664;39.686;2023-08-01T09:09:13;99920.66;;;37.79;32.27
63343;BME280;49465;57.664;39.686;2023-08-01T09:11:52;99919.13;;;37.92;30.99
63343;BME280;49465;57.664;39.686;2023-08-01T09:14:27;99915.72;;;37.82;29.98
63343;BME280;49465;57.664;39.686;2023-08-01T09:17:04;99904.38;;;37.93;31.68
63343;BME280;49465;57.664;39.686;2023-08-01T09:19:54;99914.34;;;38.08;30.07
63343;BME280;49465;57.664;39.686;2023-08-01T09:22:20;99914.22;;;38.18;29.10
63343;BME280;49465;57.664;39.686;2023-08-01T09:25:13;99915.22;;;38.71;31.04
63343;BME280;49465;57.664;39.686;2023-08-01T09:27:39;99920.25;;;39.21;32.51
63343;BME280;49465;57.664;39.686;2023-08-01T09:30:15;99922.75;;;38.79;29.89
63343;BME280;49465;57.664;39.686;2023-08-01T09:33:02;99918.94;;;38.80;26.96
63343;BME280;49465;57.664;39.686;2023-08-01T09:35:38;99919.06;;;38.70;29.71
63343;BME280;49465;57.664;39.686;2023-08-01T09:38:05;99916.84;;;38.48;29.17
63343;BME280;49465;57.664;39.686;2023-08-01T09:40:41;99920.69;;;38.71;29.57
63343;BME280;49465;57.664;39.686;2023-08-01T09:43:13;99917.91;;;38.52;28.47
63343;BME280;49465;57.664;39.686;2023-08-01T09:45:57;99918.53;;;38.87;29.02
63343;BME280;49465;57.664;39.686;2023-08-01T09:48:27;99915.66;;;38.78;29.91
63343;BME280;49465;57.664;39.686;2023-08-01T09:51:08;99913.81;;;38.92;29.40
63343;BME280;49465;57.664;39.686;2023-08-01T09:53:52;99910.19;;;38.97;29.59
63343;BME280;49465;57.664;39.686;2023-08-01T09:56:22;99911.75;;;38.84;28.56
63343;BME280;49465;57.664;39.686;2023-08-01T09:58:53;99902.63;;;38.89;26.75
63343;BME280;49465;57.664;39.686;2023-08-01T10:01:25;99913.38;;;39.04;27.47
63343;BME280;49465;57.664;39.686;2023-08-01T10:03:54;99907.69;;;39.01;27.64
63343;BME280;49465;57.664;39.686;2023-08-01T10:06:34;99911.56;;;39.32;28.32
63343;BME280;49465;57.664;39.686;2023-08-01T10:09:09;99910.09;;;39.21;26.85
63343;BME280;49465;57.664;39.686;2023-08-01T10:11:39;99908.25;;;39.16;28.00
63343;BME280;49465;57.664;39.686;2023-08-01T10:14:07;99904.34;;;39.23;27.13
63343;BME280;49465;57.664;39.686;2023-08-01T10:16:37;99904.75;;;39.30;26.63
63343;BME280;49465;57.664;39.686;2023-08-01T10:19:09;99902.94;;;39.39;26.67
63343;BME280;49465;57.664;39.686;2023-08-01T10:21:41;99900.09;;;39.30;27.66
63343;BME280;49465;57.664;39.686;2023-08-01T10:24:07;99895.63;;;39.34;26.89
63343;BME280;49465;57.664;39.686;2023-08-01T10:26:34;99897.72;;;39.43;26.91
63343;BME280;49465;57.664;39.686;2023-08-01T10:29:01;99895.06;;;39.51;26.37
63343;BME280;49465;57.664;39.686;2023-08-01T10:31:28;99889.72;;;39.60;27.55
63343;BME280;49465;57.664;39.686;2023-08-01T10:34:27;99894.75;;;40.13;27.46
63343;BME280;49465;57.664;39.686;2023-08-01T10:37:02;99897.22;;;39.87;25.15
63343;BME280;49465;57.664;39.686;2023-08-01T10:39:30;99901.00;;;39.72;26.71
63343;BME280;49465;57.664;39.686;2023-08-01T10:42:04;99900.81;;;39.83;27.13
63343;BME280;49465;57.664;39.686;2023-08-01T10:44:45;99894.56;;;39.96;28.80
63343;BME280;49465;57.664;39.686;2023-08-01T10:47:11;99893.81;;;39.77;26.64
63343;BME280;49465;57.664;39.686;2023-08-01T10:49:40;99897.78;;;39.84;26.07
63343;BME280;49465;57.664;39.686;2023-08-01T10:54:46;99903.28;;;39.98;27.13
63343;BME280;49465;57.664;39.686;2023-08-01T10:57:16;99894.25;;;40.11;26.29
63343;BME280;49465;57.664;39.686;2023-08-01T10:59:46;99896.38;;;40.01;26.56
63343;BME280;49465;57.664;39.686;2023-08-01T11:02:30;99894.03;;;40.08;26.46
63343;BME280;49465;57.664;39.686;2023-08-01T11:04:58;99892.63;;;39.97;26.62
63343;BME280;49465;57.664;39.686;2023-08-01T11:07:28;99893.53;;;39.92;25.84
63343;BME280;49465;57.664;39.686;2023-08-01T11:10:12;99893.72;;;40.23;26.89
63343;BME280;49465;57.664;39.686;2023-08-01T11:12:43;99893.97;;;39.99;26.30
63343;BME280;49465;57.664;39.686;2023-08-01T11:15:13;99893.25;;;40.07;26.10
63343;BME280;49465;57.664;39.686;2023-08-01T11:17:45;99897.50;;;40.00;25.65
63343;BME280;49465;57.664;39.686;2023-08-01T11:20:12;99888.06;;;39.92;27.30
63343;BME280;49465;57.664;39.686;2023-08-01T11:25:16;99885.22;;;39.97;26.21
63343;BME280;49465;57.664;39.686;2023-08-01T11:27:43;99891.09;;;40.04;27.39
63343;BME280;49465;57.664;39.686;2023-08-01T11:30:09;99886.94;;;40.07;25.37
63343;BME280;49465;57.664;39.686;2023-08-01T11:32:38;99889.28;;;40.13;26.72
63343;BME280;49465;57.664;39.686;2023-08-01T11:35:05;99888.97;;;40.01;24.85
63343;BME280;49465;57.664;39.686;2023-08-01T11:37:31;99896.78;;;39.94;26.18
63343;BME280;49465;57.664;39.686;2023-08-01T11:40:04;99892.69;;;39.78;26.09
63343;BME280;49465;57.664;39.686;2023-08-01T11:42:34;99896.81;;;39.61;25.43
63343;BME280;49465;57.664;39.686;2023-08-01T11:45:13;99899.28;;;39.77;27.35
63343;BME280;49465;57.664;39.686;2023-08-01T11:47:47;99896.44;;;39.54;27.17
63343;BME280;49465;57.664;39.686;2023-08-01T11:50:25;99892.63;;;39.50;24.39
63343;BME280;49465;57.664;39.686;2023-08-01T11:52:57;99896.47;;;39.16;26.55
63343;BME280;49465;57.664;39.686;2023-08-01T11:55:36;99888.03;;;39.12;27.87
63343;BME280;49465;57.664;39.686;2023-08-01T11:58:14;99882.88;;;39.11;28.81
63343;BME280;49465;57.664;39.686;2023-08-01T12:00:45;99891.72;;;39.22;27.23
63343;BME280;49465;57.664;39.686;2023-08-01T12:03:19;99894.06;;;39.28;26.78
63343;BME280;49465;57.664;39.686;2023-08-01T12:05:48;99878.81;;;39.22;27.84
63343;BME280;49465;57.664;39.686;2023-08-01T12:08:17;99887.00;;;39.41;27.68
63343;BME280;49465;57.664;39.686;2023-08-01T12:10:49;99889.88;;;39.50;26.79
63343;BME280;49465;57.664;39.686;2023-08-01T12:13:25;99881.50;;;39.74;26.18
63343;BME280;49465;57.664;39.686;2023-08-01T12:15:55;99890.09;;;39.53;28.25
63343;BME280;49465;57.664;39.686;2023-08-01T12:18:30;99890.56;;;39.42;26.80
63343;BME280;49465;57.664;39.686;2023-08-01T12:20:59;99882.59;;;39.26;26.23
63343;BME280;49465;57.664;39.686;2023-08-01T12:23:25;99882.50;;;38.99;25.98
63343;BME280;49465;57.664;39.686;2023-08-01T12:25:52;99885.44;;;38.83;25.65
63343;BME280;49465;57.664;39.686;2023-08-01T12:28:21;99882.34;;;38.71;26.18
63343;BME280;49465;57.664;39.686;2023-08-01T12:30:50;99882.34;;;38.71;28.06
63343;BME280;49465;57.664;39.686;2023-08-01T12:33:20;99881.25;;;38.72;26.57
63343;BME280;49465;57.664;39.686;2023-08-01T12:35:47;99882.06;;;38.72;26.46
63343;BME280;49465;57.664;39.686;2023-08-01T12:38:13;99882.34;;;38.71;27.24
63343;BME280;49465;57.664;39.686;2023-08-01T12:40:40;99883.75;;;38.68;26.07
63343;BME280;49465;57.664;39.686;2023-08-01T12:43:06;99882.81;;;38.78;28.26
63343;BME280;49465;57.664;39.686;2023-08-01T12:45:35;99877.84;;;38.80;27.37
63343;BME280;49465;57.664;39.686;2023-08-01T12:48:02;99874.06;;;38.76;27.70
63343;BME280;49465;57.664;39.686;2023-08-01T12:50:36;99883.59;;;38.79;27.27
63343;BME280;49465;57.664;39.686;2023-08-01T12:53:02;99878.44;;;38.58;26.59
63343;BME280;49465;57.664;39.686;2023-08-01T12:55:28;99876.63;;;38.48;27.92
63343;BME280;49465;57.664;39.686;2023-08-01T12:57:55;99875.50;;;38.49;26.84
63343;BME280;49465;57.664;39.686;2023-08-01T13:00:21;99876.78;;;38.57;28.04
63343;BME280;49465;57.664;39.686;2023-08-01T13:02:47;99865.69;;;38.67;28.12
63343;BME280;49465;57.664;39.686;2023-08-01T13:05:15;99867.78;;;38.75;26.63
63343;BME280;49465;57.664;39.686;2023-08-01T13:07:41;99871.69;;;38.88;27.43
63343;BME280;49465;57.664;39.686;2023-08-01T13:10:10;99873.22;;;38.94;27.32
63343;BME280;49465;57.664;39.686;2023-08-01T13:12:40;99865.47;;;39.02;27.68
63343;BME280;49465;57.664;39.686;2023-08-01T13:15:10;99863.75;;;39.06;27.04